sensor_id;sensor_type;location;lat;lon;timestamp;temperature;humidity
17948;DHT22;9099;47.958;11.366;2023-07-08T00:00:54;20.50;97.40
17948;DHT22;9099;47.958;11.366;2023-07-08T00:03:21;20.50;97.40
17948;DHT22;9099;47.958;11.366;2023-07-08T00:05:51;20.50;97.80
17948;DHT22;9099;47.958;11.366;2023-07-08T00:08:20;20.50;97.70
17948;DHT22;9099;47.958;11.366;2023-07-08T00:10:47;20.40;97.90
17948;DHT22;9099;47.958;11.366;2023-07-08T00:13:14;20.40;97.90
17948;DHT22;9099;47.958;11.366;2023-07-08T00:15:42;20.40;97.90
17948;DHT22;9099;47.958;11.366;2023-07-08T00:18:11;20.40;98.10
17948;DHT22;9099;47.958;11.366;2023-07-08T00:20:40;20.50;98.00
17948;DHT22;9099;47.958;11.366;2023-07-08T00:23:08;20.40;98.00
17948;DHT22;9099;47.958;11.366;2023-07-08T00:25:36;20.50;98.00
17948;DHT22;9099;47.958;11.366;2023-07-08T00:28:07;20.40;98.10
17948;DHT22;9099;47.958;11.366;2023-07-08T00:30:35;20.50;98.40
17948;DHT22;9099;47.958;11.366;2023-07-08T00:33:05;20.40;98.20
17948;DHT22;9099;47.958;11.366;2023-07-08T00:35:34;20.50;98.30
17948;DHT22;9099;47.958;11.366;2023-07-08T00:38:01;20.40;98.20
17948;DHT22;9099;47.958;11.366;2023-07-08T00:40:30;20.40;98.20
17948;DHT22;9099;47.958;11.366;2023-07-08T00:43:01;20.40;98.20
17948;DHT22;9099;47.958;11.366;2023-07-08T00:45:37;20.40;98.20
17948;DHT22;9099;47.958;11.366;2023-07-08T00:48:19;20.50;98.20
17948;DHT22;9099;47.958;11.366;2023-07-08T00:50:49;20.60;98.60
17948;DHT22;9099;47.958;11.366;2023-07-08T00:53:27;20.60;98.30
17948;DHT22;9099;47.958;11.366;2023-07-08T00:55:58;20.60;98.40
17948;DHT22;9099;47.958;11.366;2023-07-08T00:58:29;20.60;99.10
17948;DHT22;9099;47.958;11.366;2023-07-08T01:00:58;20.50;98.70
17948;DHT22;9099;47.958;11.366;2023-07-08T01:03:27;20.50;98.80
17948;DHT22;9099;47.958;11.366;2023-07-08T01:05:57;20.40;98.90
17948;DHT22;9099;47.958;11.366;2023-07-08T01:08:27;20.40;98.70
17948;DHT22;9099;47.958;11.366;2023-07-08T01:11:00;20.40;98.80
17948;DHT22;9099;47.958;11.366;2023-07-08T01:13:31;20.40;98.80
17948;DHT22;9099;47.958;11.366;2023-07-08T01:15:59;20.40;99.00
17948;DHT22;9099;47.958;11.366;2023-07-08T01:18:28;20.30;99.20
17948;DHT22;9099;47.958;11.366;2023-07-08T01:21:00;20.30;99.30
17948;DHT22;9099;47.958;11.366;2023-07-08T01:23:31;20.20;99.40
17948;DHT22;9099;47.958;11.366;2023-07-08T01:25:59;20.20;99.30
17948;DHT22;9099;47.958;11.366;2023-07-08T01:28:27;20.20;99.40
17948;DHT22;9099;47.958;11.366;2023-07-08T01:30:54;20.20;99.40
17948;DHT22;9099;47.958;11.366;2023-07-08T01:33:22;20.20;99.60
17948;DHT22;9099;47.958;11.366;2023-07-08T01:35:50;20.20;99.70
17948;DHT22;9099;47.958;11.366;2023-07-08T01:38:21;20.10;99.90
17948;DHT22;9099;47.958;11.366;2023-07-08T01:40:52;20.10;99.90
17948;DHT22;9099;47.958;11.366;2023-07-08T01:43:19;20.00;99.90
17948;DHT22;9099;47.958;11.366;2023-07-08T01:45:47;20.00;99.90
17948;DHT22;9099;47.958;11.366;2023-07-08T01:48:17;19.90;99.90
17948;DHT22;9099;47.958;11.366;2023-07-08T01:50:57;19.90;99.90
17948;DHT22;9099;47.958;11.366;2023-07-08T01:53:29;19.90;99.90
17948;DHT22;9099;47.958;11.366;2023-07-08T01:55:57;19.80;99.90
17948;DHT22;9099;47.958;11.366;2023-07-08T01:58:25;19.70;99.90
17948;DHT22;9099;47.958;11.366;2023-07-08T02:00:52;19.70;99.90
17948;DHT22;9099;47.958;11.366;2023-07-08T02:03:19;19.60;99.90
17948;DHT22;9099;47.958;11.366;2023-07-08T02:05:46;19.60;99.90
17948;DHT22;9099;47.958;11.366;2023-07-08T02:08:13;19.50;99.90
17948;DHT22;9099;47.958;11.366;2023-07-08T02:10:41;19.30;99.90
17948;DHT22;9099;47.958;11.366;2023-07-08T02:13:10;19.20;99.90
17948;DHT22;9099;47.958;11.366;2023-07-08T02:15:37;19.10;99.90
17948;DHT22;9099;47.958;11.366;2023-07-08T02:18:04;19.00;99.90
17948;DHT22;9099;47.958;11.366;2023-07-08T02:20:30;19.00;99.90
17948;DHT22;9099;47.958;11.366;2023-07-08T02:22:57;19.00;99.90
17948;DHT22;9099;47.958;11.366;2023-07-08T02:25:24;18.90;99.90
17948;DHT22;9099;47.958;11.366;2023-07-08T02:27:52;18.90;99.90
17948;DHT22;9099;47.958;11.366;2023-07-08T02:30:21;18.90;99.90
17948;DHT22;9099;47.958;11.366;2023-07-08T02:32:48;18.80;99.90
17948;DHT22;9099;47.958;11.366;2023-07-08T02:35:22;18.70;99.90
17948;DHT22;9099;47.958;11.366;2023-07-08T02:37:49;18.60;99.90
17948;DHT22;9099;47.958;11.366;2023-07-08T02:40:16;18.50;99.90
17948;DHT22;9099;47.958;11.366;2023-07-08T02:42:43;18.50;99.90
17948;DHT22;9099;47.958;11.366;2023-07-08T02:45:10;18.40;99.90
17948;DHT22;9099;47.958;11.366;2023-07-08T02:47:39;18.40;99.90
17948;DHT22;9099;47.958;11.366;2023-07-08T02:50:07;18.30;99.90
17948;DHT22;9099;47.958;11.366;2023-07-08T02:52:34;18.30;99.90
17948;DHT22;9099;47.958;11.366;2023-07-08T02:55:01;18.30;99.90
17948;DHT22;9099;47.958;11.366;2023-07-08T02:57:28;18.30;99.90
17948;DHT22;9099;47.958;11.366;2023-07-08T02:59:55;18.30;99.90
17948;DHT22;9099;47.958;11.366;2023-07-08T03:02:22;18.30;99.90
17948;DHT22;9099;47.958;11.366;2023-07-08T03:04:50;18.30;99.90
17948;DHT22;9099;47.958;11.366;2023-07-08T03:07:19;18.30;99.90
17948;DHT22;9099;47.958;11.366;2023-07-08T03:09:46;18.20;99.90
17948;DHT22;9099;47.958;11.366;2023-07-08T03:12:13;18.20;99.90
17948;DHT22;9099;47.958;11.366;2023-07-08T03:14:40;18.30;99.90
17948;DHT22;9099;47.958;11.366;2023-07-08T03:17:07;18.20;99.90
17948;DHT22;9099;47.958;11.366;2023-07-08T03:19:34;18.20;99.90
17948;DHT22;9099;47.958;11.366;2023-07-08T03:22:02;18.20;99.90
17948;DHT22;9099;47.958;11.366;2023-07-08T03:24:31;18.20;99.90
17948;DHT22;9099;47.958;11.366;2023-07-08T03:26:58;18.20;99.90
17948;DHT22;9099;47.958;11.366;2023-07-08T03:29:26;18.20;99.90
17948;DHT22;9099;47.958;11.366;2023-07-08T03:31:53;18.20;99.90
17948;DHT22;9099;47.958;11.366;2023-07-08T03:34:19;18.30;99.90
17948;DHT22;9099;47.958;11.366;2023-07-08T03:36:49;18.30;99.90
17948;DHT22;9099;47.958;11.366;2023-07-08T03:39:19;18.40;99.90
17948;DHT22;9099;47.958;11.366;2023-07-08T03:41:47;18.40;99.90
17948;DHT22;9099;47.958;11.366;2023-07-08T03:44:14;18.40;99.90
17948;DHT22;9099;47.958;11.366;2023-07-08T03:46:43;18.40;99.90
17948;DHT22;9099;47.958;11.366;2023-07-08T03:49:10;18.40;99.90
17948;DHT22;9099;47.958;11.366;2023-07-08T03:51:39;18.50;99.90
17948;DHT22;9099;47.958;11.366;2023-07-08T03:54:09;18.50;99.90
17948;DHT22;9099;47.958;11.366;2023-07-08T03:56:38;18.50;99.90
17948;DHT22;9099;47.958;11.366;2023-07-08T03:59:05;18.60;99.90
17948;DHT22;9099;47.958;11.366;2023-07-08T04:01:32;18.60;99.90
17948;DHT22;9099;47.958;11.366;2023-07-08T04:03:59;18.60;99.90
17948;DHT22;9099;47.958;11.366;2023-07-08T04:06:26;18.60;99.90
17948;DHT22;9099;47.958;11.366;2023-07-08T04:08:54;18.70;99.90
17948;DHT22;9099;47.958;11.366;2023-07-08T04:11:22;18.70;99.90
17948;DHT22;9099;47.958;11.366;2023-07-08T04:13:51;18.80;99.90
17948;DHT22;9099;47.958;11.366;2023-07-08T04:16:20;18.90;99.90
17948;DHT22;9099;47.958;11.366;2023-07-08T04:18:48;18.90;99.90
17948;DHT22;9099;47.958;11.366;2023-07-08T04:21:16;18.90;99.90
17948;DHT22;9099;47.958;11.366;2023-07-08T04:23:43;19.00;99.90
17948;DHT22;9099;47.958;11.366;2023-07-08T04:26:10;19.00;99.90
17948;DHT22;9099;47.958;11.366;2023-07-08T04:28:37;19.00;99.90
17948;DHT22;9099;47.958;11.366;2023-07-08T04:31:05;19.10;99.90
17948;DHT22;9099;47.958;11.366;2023-07-08T04:33:32;19.20;99.90
17948;DHT22;9099;47.958;11.366;2023-07-08T04:35:58;19.30;99.90
17948;DHT22;9099;47.958;11.366;2023-07-08T04:38:26;19.30;99.90
17948;DHT22;9099;47.958;11.366;2023-07-08T04:40:54;19.30;99.90
17948;DHT22;9099;47.958;11.366;2023-07-08T04:43:22;19.40;99.90
17948;DHT22;9099;47.958;11.366;2023-07-08T04:45:55;19.40;99.90
17948;DHT22;9099;47.958;11.366;2023-07-08T04:48:24;19.40;99.90
17948;DHT22;9099;47.958;11.366;2023-07-08T04:50:52;19.50;99.90
17948;DHT22;9099;47.958;11.366;2023-07-08T04:53:19;19.50;99.90
17948;DHT22;9099;47.958;11.366;2023-07-08T04:55:49;19.50;99.90
17948;DHT22;9099;47.958;11.366;2023-07-08T04:58:17;19.30;99.90
17948;DHT22;9099;47.958;11.366;2023-07-08T05:00:44;19.20;99.90
17948;DHT22;9099;47.958;11.366;2023-07-08T05:03:11;19.20;99.90
17948;DHT22;9099;47.958;11.366;2023-07-08T05:05:40;19.30;99.90
17948;DHT22;9099;47.958;11.366;2023-07-08T05:08:07;19.30;99.90
17948;DHT22;9099;47.958;11.366;2023-07-08T05:10:34;19.30;99.90
17948;DHT22;9099;47.958;11.366;2023-07-08T05:13:01;19.40;99.90
17948;DHT22;9099;47.958;11.366;2023-07-08T05:15:28;19.50;99.90
17948;DHT22;9099;47.958;11.366;2023-07-08T05:17:55;19.50;99.90
17948;DHT22;9099;47.958;11.366;2023-07-08T05:20:22;19.50;99.90
17948;DHT22;9099;47.958;11.366;2023-07-08T05:22:50;19.50;99.90
17948;DHT22;9099;47.958;11.366;2023-07-08T05:25:18;19.50;99.90
17948;DHT22;9099;47.958;11.366;2023-07-08T05:27:45;19.40;99.90
17948;DHT22;9099;47.958;11.366;2023-07-08T05:30:15;19.50;99.90
17948;DHT22;9099;47.958;11.366;2023-07-08T05:32:42;19.50;99.90
17948;DHT22;9099;47.958;11.366;2023-07-08T05:35:09;19.60;99.90
17948;DHT22;9099;47.958;11.366;2023-07-08T05:37:36;19.60;99.90
17948;DHT22;9099;47.958;11.366;2023-07-08T05:40:08;19.50;99.90
17948;DHT22;9099;47.958;11.366;2023-07-08T05:42:35;19.60;99.90
17948;DHT22;9099;47.958;11.366;2023-07-08T05:45:02;19.60;99.90
17948;DHT22;9099;47.958;11.366;2023-07-08T05:47:29;19.70;99.90
17948;DHT22;9099;47.958;11.366;2023-07-08T05:49:56;19.80;99.90
17948;DHT22;9099;47.958;11.366;2023-07-08T05:52:23;20.00;99.90
17948;DHT22;9099;47.958;11.366;2023-07-08T05:54:50;20.20;99.90
17948;DHT22;9099;47.958;11.366;2023-07-08T05:57:18;20.20;99.90
17948;DHT22;9099;47.958;11.366;2023-07-08T05:59:45;20.40;99.90
17948;DHT22;9099;47.958;11.366;2023-07-08T06:02:12;20.50;99.90
17948;DHT22;9099;47.958;11.366;2023-07-08T06:04:40;20.70;99.90
17948;DHT22;9099;47.958;11.366;2023-07-08T06:07:07;20.80;99.90
17948;DHT22;9099;47.958;11.366;2023-07-08T06:09:34;20.80;99.90
17948;DHT22;9099;47.958;11.366;2023-07-08T06:12:01;21.00;99.90
17948;DHT22;9099;47.958;11.366;2023-07-08T06:14:29;21.20;99.90
17948;DHT22;9099;47.958;11.366;2023-07-08T06:16:58;21.30;99.90
17948;DHT22;9099;47.958;11.366;2023-07-08T06:19:25;21.40;99.90
17948;DHT22;9099;47.958;11.366;2023-07-08T06:21:51;21.40;99.90
17948;DHT22;9099;47.958;11.366;2023-07-08T06:24:18;21.50;99.90
17948;DHT22;9099;47.958;11.366;2023-07-08T06:26:46;21.50;99.90
17948;DHT22;9099;47.958;11.366;2023-07-08T06:29:13;21.50;99.90
17948;DHT22;9099;47.958;11.366;2023-07-08T06:31:42;21.60;99.90
17948;DHT22;9099;47.958;11.366;2023-07-08T06:34:09;21.70;99.90
17948;DHT22;9099;47.958;11.366;2023-07-08T06:36:36;21.80;99.90
17948;DHT22;9099;47.958;11.366;2023-07-08T06:39:03;21.80;99.90
17948;DHT22;9099;47.958;11.366;2023-07-08T06:41:32;21.90;99.90
17948;DHT22;9099;47.958;11.366;2023-07-08T06:43:59;22.00;99.90
17948;DHT22;9099;47.958;11.366;2023-07-08T06:46:26;22.10;99.90
17948;DHT22;9099;47.958;11.366;2023-07-08T06:48:54;22.20;99.90
17948;DHT22;9099;47.958;11.366;2023-07-08T06:51:21;22.50;99.90
17948;DHT22;9099;47.958;11.366;2023-07-08T06:53:48;22.60;99.90
17948;DHT22;9099;47.958;11.366;2023-07-08T06:56:15;22.60;99.90
17948;DHT22;9099;47.958;11.366;2023-07-08T06:58:42;22.70;99.90
17948;DHT22;9099;47.958;11.366;2023-07-08T07:01:09;22.80;99.90
17948;DHT22;9099;47.958;11.366;2023-07-08T07:03:35;23.00;99.90
17948;DHT22;9099;47.958;11.366;2023-07-08T07:06:04;23.20;99.90
17948;DHT22;9099;47.958;11.366;2023-07-08T07:08:31;23.40;99.90
17948;DHT22;9099;47.958;11.366;2023-07-08T07:10:57;23.50;99.90
17948;DHT22;9099;47.958;11.366;2023-07-08T07:13:24;23.50;99.90
17948;DHT22;9099;47.958;11.366;2023-07-08T07:15:51;23.70;99.90
17948;DHT22;9099;47.958;11.366;2023-07-08T07:18:18;23.80;99.90
17948;DHT22;9099;47.958;11.366;2023-07-08T07:20:49;23.90;99.90
17948;DHT22;9099;47.958;11.366;2023-07-08T07:23:17;24.00;99.90
17948;DHT22;9099;47.958;11.366;2023-07-08T07:25:45;24.10;99.90
17948;DHT22;9099;47.958;11.366;2023-07-08T07:28:12;24.10;99.90
17948;DHT22;9099;47.958;11.366;2023-07-08T07:30:39;24.20;99.90
17948;DHT22;9099;47.958;11.366;2023-07-08T07:33:06;24.30;99.90
17948;DHT22;9099;47.958;11.366;2023-07-08T07:35:33;24.30;99.90
17948;DHT22;9099;47.958;11.366;2023-07-08T07:38:00;24.40;99.90
17948;DHT22;9099;47.958;11.366;2023-07-08T07:40:28;24.60;99.90
17948;DHT22;9099;47.958;11.366;2023-07-08T07:42:55;24.70;99.90
17948;DHT22;9099;47.958;11.366;2023-07-08T07:45:22;24.80;99.90
17948;DHT22;9099;47.958;11.366;2023-07-08T07:47:48;24.80;99.90
17948;DHT22;9099;47.958;11.366;2023-07-08T07:50:15;24.80;99.90
17948;DHT22;9099;47.958;11.366;2023-07-08T07:52:42;25.00;99.90
17948;DHT22;9099;47.958;11.366;2023-07-08T07:55:09;25.10;99.90
17948;DHT22;9099;47.958;11.366;2023-07-08T07:57:37;25.30;99.90
17948;DHT22;9099;47.958;11.366;2023-07-08T08:00:05;25.50;99.90
17948;DHT22;9099;47.958;11.366;2023-07-08T08:02:32;25.70;99.90
17948;DHT22;9099;47.958;11.366;2023-07-08T08:04:59;25.80;99.90
17948;DHT22;9099;47.958;11.366;2023-07-08T08:07:26;26.00;99.90
17948;DHT22;9099;47.958;11.366;2023-07-08T08:09:53;26.30;99.90
17948;DHT22;9099;47.958;11.366;2023-07-08T08:12:21;26.60;99.90
17948;DHT22;9099;47.958;11.366;2023-07-08T08:14:51;27.10;99.90
17948;DHT22;9099;47.958;11.366;2023-07-08T08:17:18;27.20;99.90
17948;DHT22;9099;47.958;11.366;2023-07-08T08:19:45;27.00;99.90
17948;DHT22;9099;47.958;11.366;2023-07-08T08:22:12;27.00;99.90
17948;DHT22;9099;47.958;11.366;2023-07-08T08:24:39;27.10;99.90
17948;DHT22;9099;47.958;11.366;2023-07-08T08:27:06;27.20;99.90
17948;DHT22;9099;47.958;11.366;2023-07-08T08:29:33;27.40;99.90
17948;DHT22;9099;47.958;11.366;2023-07-08T08:32:01;27.50;99.90
17948;DHT22;9099;47.958;11.366;2023-07-08T08:34:28;27.70;99.90
17948;DHT22;9099;47.958;11.366;2023-07-08T08:36:57;27.80;99.90
17948;DHT22;9099;47.958;11.366;2023-07-08T08:39:24;28.00;99.90
17948;DHT22;9099;47.958;11.366;2023-07-08T08:41:52;28.20;99.90
17948;DHT22;9099;47.958;11.366;2023-07-08T08:44:26;28.30;99.90
17948;DHT22;9099;47.958;11.366;2023-07-08T08:46:58;28.50;99.90
17948;DHT22;9099;47.958;11.366;2023-07-08T08:49:37;28.40;99.90
17948;DHT22;9099;47.958;11.366;2023-07-08T08:52:06;28.40;99.90
17948;DHT22;9099;47.958;11.366;2023-07-08T08:54:33;28.40;99.90
17948;DHT22;9099;47.958;11.366;2023-07-08T08:57:08;28.50;99.90
17948;DHT22;9099;47.958;11.366;2023-07-08T08:59:44;28.50;99.90
17948;DHT22;9099;47.958;11.366;2023-07-08T09:02:25;28.60;99.90
17948;DHT22;9099;47.958;11.366;2023-07-08T09:04:58;28.80;99.90
17948;DHT22;9099;47.958;11.366;2023-07-08T09:07:28;29.00;99.90
17948;DHT22;9099;47.958;11.366;2023-07-08T09:10:02;29.20;99.90
17948;DHT22;9099;47.958;11.366;2023-07-08T09:12:30;29.40;99.90
17948;DHT22;9099;47.958;11.366;2023-07-08T09:14:59;29.60;99.90
17948;DHT22;9099;47.958;11.366;2023-07-08T09:17:29;29.70;99.90
17948;DHT22;9099;47.958;11.366;2023-07-08T09:20:06;29.90;99.90
17948;DHT22;9099;47.958;11.366;2023-07-08T09:22:40;29.90;99.90
17948;DHT22;9099;47.958;11.366;2023-07-08T09:25:20;30.10;99.90
17948;DHT22;9099;47.958;11.366;2023-07-08T09:27:48;30.20;99.90
17948;DHT22;9099;47.958;11.366;2023-07-08T09:30:17;30.30;99.90
17948;DHT22;9099;47.958;11.366;2023-07-08T09:32:46;30.40;99.90
17948;DHT22;9099;47.958;11.366;2023-07-08T09:35:19;30.40;99.90
17948;DHT22;9099;47.958;11.366;2023-07-08T09:37:47;30.70;99.90
17948;DHT22;9099;47.958;11.366;2023-07-08T09:40:17;30.90;99.90
17948;DHT22;9099;47.958;11.366;2023-07-08T09:42:48;31.20;99.90
17948;DHT22;9099;47.958;11.366;2023-07-08T09:45:20;31.40;99.90
17948;DHT22;9099;47.958;11.366;2023-07-08T09:47:47;31.50;99.90
17948;DHT22;9099;47.958;11.366;2023-07-08T09:50:21;31.40;99.90
17948;DHT22;9099;47.958;11.366;2023-07-08T09:52:50;31.40;99.90
17948;DHT22;9099;47.958;11.366;2023-07-08T09:55:17;31.40;99.70
17948;DHT22;9099;47.958;11.366;2023-07-08T09:57:45;31.70;99.40
17948;DHT22;9099;47.958;11.366;2023-07-08T10:00:15;31.70;99.20
17948;DHT22;9099;47.958;11.366;2023-07-08T10:02:45;31.80;98.80
17948;DHT22;9099;47.958;11.366;2023-07-08T10:05:16;32.00;97.60
17948;DHT22;9099;47.958;11.366;2023-07-08T10:07:46;32.00;97.90
17948;DHT22;9099;47.958;11.366;2023-07-08T10:10:16;32.20;98.00
17948;DHT22;9099;47.958;11.366;2023-07-08T10:12:53;32.40;96.90
17948;DHT22;9099;47.958;11.366;2023-07-08T10:15:28;32.40;96.70
17948;DHT22;9099;47.958;11.366;2023-07-08T10:17:56;32.50;97.20
17948;DHT22;9099;47.958;11.366;2023-07-08T10:20:24;32.80;97.10
17948;DHT22;9099;47.958;11.366;2023-07-08T10:23:03;33.00;95.10
17948;DHT22;9099;47.958;11.366;2023-07-08T10:25:41;33.20;95.70
17948;DHT22;9099;47.958;11.366;2023-07-08T10:28:21;33.70;97.30
17948;DHT22;9099;47.958;11.366;2023-07-08T10:30:58;33.80;96.40
17948;DHT22;9099;47.958;11.366;2023-07-08T10:33:38;33.80;96.40
17948;DHT22;9099;47.958;11.366;2023-07-08T10:36:19;34.20;95.10
17948;DHT22;9099;47.958;11.366;2023-07-08T10:38:59;34.60;94.00
17948;DHT22;9099;47.958;11.366;2023-07-08T10:41:34;34.90;95.00
17948;DHT22;9099;47.958;11.366;2023-07-08T10:44:07;35.10;93.80
17948;DHT22;9099;47.958;11.366;2023-07-08T10:46:44;34.80;92.10
17948;DHT22;9099;47.958;11.366;2023-07-08T10:52:35;35.30;92.80
17948;DHT22;9099;47.958;11.366;2023-07-08T10:55:20;35.30;93.10
17948;DHT22;9099;47.958;11.366;2023-07-08T10:58:08;35.60;93.10
17948;DHT22;9099;47.958;11.366;2023-07-08T11:00:44;35.90;93.00
17948;DHT22;9099;47.958;11.366;2023-07-08T11:06:17;35.90;92.50
17948;DHT22;9099;47.958;11.366;2023-07-08T11:08:48;35.80;91.30
17948;DHT22;9099;47.958;11.366;2023-07-08T11:11:26;35.70;92.30
17948;DHT22;9099;47.958;11.366;2023-07-08T11:14:03;35.90;90.70
17948;DHT22;9099;47.958;11.366;2023-07-08T11:16:35;35.70;91.20
17948;DHT22;9099;47.958;11.366;2023-07-08T11:19:06;35.80;91.80
17948;DHT22;9099;47.958;11.366;2023-07-08T11:21:39;35.90;90.10
17948;DHT22;9099;47.958;11.366;2023-07-08T11:24:12;35.60;90.80
17948;DHT22;9099;47.958;11.366;2023-07-08T11:26:44;35.70;90.60
17948;DHT22;9099;47.958;11.366;2023-07-08T11:29:18;35.80;91.30
17948;DHT22;9099;47.958;11.366;2023-07-08T11:31:46;36.00;91.00
17948;DHT22;9099;47.958;11.366;2023-07-08T11:34:16;36.00;90.20
17948;DHT22;9099;47.958;11.366;2023-07-08T11:36:44;35.70;88.30
17948;DHT22;9099;47.958;11.366;2023-07-08T11:39:31;35.80;90.90
17948;DHT22;9099;47.958;11.366;2023-07-08T11:42:19;35.70;89.30
17948;DHT22;9099;47.958;11.366;2023-07-08T11:44:50;35.60;91.10
17948;DHT22;9099;47.958;11.366;2023-07-08T11:47:25;35.50;91.10
17948;DHT22;9099;47.958;11.366;2023-07-08T11:49:53;35.60;91.50
17948;DHT22;9099;47.958;11.366;2023-07-08T11:52:21;35.50;90.30
17948;DHT22;9099;47.958;11.366;2023-07-08T11:54:56;35.80;91.10
17948;DHT22;9099;47.958;11.366;2023-07-08T11:57:34;35.90;87.90
17948;DHT22;9099;47.958;11.366;2023-07-08T12:00:16;35.70;87.60
17948;DHT22;9099;47.958;11.366;2023-07-08T12:02:50;35.40;90.10
17948;DHT22;9099;47.958;11.366;2023-07-08T12:05:29;35.20;87.20
17948;DHT22;9099;47.958;11.366;2023-07-08T12:07:56;35.20;89.30
17948;DHT22;9099;47.958;11.366;2023-07-08T12:10:27;35.30;89.20
17948;DHT22;9099;47.958;11.366;2023-07-08T12:12:56;35.30;90.20
17948;DHT22;9099;47.958;11.366;2023-07-08T12:15:24;35.30;89.90
17948;DHT22;9099;47.958;11.366;2023-07-08T12:17:53;35.40;86.50
17948;DHT22;9099;47.958;11.366;2023-07-08T12:20:23;35.20;83.30
17948;DHT22;9099;47.958;11.366;2023-07-08T12:22:50;35.40;84.80
17948;DHT22;9099;47.958;11.366;2023-07-08T12:25:19;35.20;81.70
17948;DHT22;9099;47.958;11.366;2023-07-08T12:27:47;35.10;83.20
17948;DHT22;9099;47.958;11.366;2023-07-08T12:30:16;34.70;84.70
17948;DHT22;9099;47.958;11.366;2023-07-08T12:32:44;34.30;85.80
17948;DHT22;9099;47.958;11.366;2023-07-08T12:35:19;34.40;88.40
17948;DHT22;9099;47.958;11.366;2023-07-08T12:37:47;34.70;85.40
17948;DHT22;9099;47.958;11.366;2023-07-08T12:40:14;35.10;84.40
17948;DHT22;9099;47.958;11.366;2023-07-08T12:42:41;35.40;85.40
17948;DHT22;9099;47.958;11.366;2023-07-08T12:45:15;35.80;83.50
17948;DHT22;9099;47.958;11.366;2023-07-08T12:47:43;35.80;83.90
17948;DHT22;9099;47.958;11.366;2023-07-08T12:50:11;35.90;87.80
17948;DHT22;9099;47.958;11.366;2023-07-08T12:52:38;35.40;84.50
17948;DHT22;9099;47.958;11.366;2023-07-08T12:55:07;35.00;89.50
17948;DHT22;9099;47.958;11.366;2023-07-08T12:57:34;34.90;88.70
17948;DHT22;9099;47.958;11.366;2023-07-08T13:00:01;34.80;85.80
17948;DHT22;9099;47.958;11.366;2023-07-08T13:02:31;34.80;86.60
17948;DHT22;9099;47.958;11.366;2023-07-08T13:05:00;34.60;86.40
17948;DHT22;9099;47.958;11.366;2023-07-08T13:07:34;34.30;87.50
17948;DHT22;9099;47.958;11.366;2023-07-08T13:10:03;34.10;88.50
17948;DHT22;9099;47.958;11.366;2023-07-08T13:12:31;34.10;87.50
17948;DHT22;9099;47.958;11.366;2023-07-08T13:15:00;34.00;88.30
17948;DHT22;9099;47.958;11.366;2023-07-08T13:17:28;33.90;89.50
17948;DHT22;9099;47.958;11.366;2023-07-08T13:19:57;33.70;90.80
17948;DHT22;9099;47.958;11.366;2023-07-08T13:22:24;33.70;91.70
17948;DHT22;9099;47.958;11.366;2023-07-08T13:24:59;33.70;91.40
17948;DHT22;9099;47.958;11.366;2023-07-08T13:27:26;33.60;90.70
17948;DHT22;9099;47.958;11.366;2023-07-08T13:30:15;33.50;90.90
17948;DHT22;9099;47.958;11.366;2023-07-08T13:32:41;33.30;91.40
17948;DHT22;9099;47.958;11.366;2023-07-08T13:35:23;33.30;90.60
17948;DHT22;9099;47.958;11.366;2023-07-08T13:37:50;33.10;90.00
17948;DHT22;9099;47.958;11.366;2023-07-08T13:40:17;33.00;90.10
17948;DHT22;9099;47.958;11.366;2023-07-08T13:42:48;32.90;90.70
17948;DHT22;9099;47.958;11.366;2023-07-08T13:45:17;32.90;90.40
17948;DHT22;9099;47.958;11.366;2023-07-08T13:47:44;32.90;90.20
17948;DHT22;9099;47.958;11.366;2023-07-08T13:50:29;32.70;90.50
17948;DHT22;9099;47.958;11.366;2023-07-08T13:52:58;32.80;91.40
17948;DHT22;9099;47.958;11.366;2023-07-08T13:55:25;32.80;90.80
17948;DHT22;9099;47.958;11.366;2023-07-08T13:57:57;32.80;91.20
17948;DHT22;9099;47.958;11.366;2023-07-08T14:00:25;32.90;91.00
17948;DHT22;9099;47.958;11.366;2023-07-08T14:02:52;32.80;91.20
17948;DHT22;9099;47.958;11.366;2023-07-08T14:05:19;32.80;91.20
17948;DHT22;9099;47.958;11.366;2023-07-08T14:07:48;32.60;91.00
17948;DHT22;9099;47.958;11.366;2023-07-08T14:10:15;32.50;88.70
17948;DHT22;9099;47.958;11.366;2023-07-08T14:12:42;32.60;92.40
17948;DHT22;9099;47.958;11.366;2023-07-08T14:15:09;32.80;91.80
17948;DHT22;9099;47.958;11.366;2023-07-08T14:17:37;33.10;92.10
17948;DHT22;9099;47.958;11.366;2023-07-08T14:20:09;33.30;90.90
17948;DHT22;9099;47.958;11.366;2023-07-08T14:22:37;33.00;90.10
17948;DHT22;9099;47.958;11.366;2023-07-08T14:25:08;32.70;88.40
17948;DHT22;9099;47.958;11.366;2023-07-08T14:27:35;32.30;89.10
17948;DHT22;9099;47.958;11.366;2023-07-08T14:30:03;32.00;90.70
17948;DHT22;9099;47.958;11.366;2023-07-08T14:32:31;31.70;91.00
17948;DHT22;9099;47.958;11.366;2023-07-08T14:35:02;31.50;89.90
17948;DHT22;9099;47.958;11.366;2023-07-08T14:37:36;31.40;90.80
17948;DHT22;9099;47.958;11.366;2023-07-08T14:40:23;31.30;91.40
17948;DHT22;9099;47.958;11.366;2023-07-08T14:42:58;31.40;91.00
17948;DHT22;9099;47.958;11.366;2023-07-08T14:45:30;31.40;91.00
17948;DHT22;9099;47.958;11.366;2023-07-08T14:47:58;31.80;90.80
17948;DHT22;9099;47.958;11.366;2023-07-08T14:50:25;32.20;92.30
17948;DHT22;9099;47.958;11.366;2023-07-08T14:52:55;32.70;90.70
17948;DHT22;9099;47.958;11.366;2023-07-08T14:55:23;32.90;91.70
17948;DHT22;9099;47.958;11.366;2023-07-08T14:57:51;32.70;90.90
17948;DHT22;9099;47.958;11.366;2023-07-08T15:00:18;32.60;91.70
17948;DHT22;9099;47.958;11.366;2023-07-08T15:02:47;32.50;90.10
17948;DHT22;9099;47.958;11.366;2023-07-08T15:05:17;32.40;90.70
17948;DHT22;9099;47.958;11.366;2023-07-08T15:07:48;32.20;90.60
17948;DHT22;9099;47.958;11.366;2023-07-08T15:10:15;32.20;90.40
17948;DHT22;9099;47.958;11.366;2023-07-08T15:12:44;32.00;92.00
17948;DHT22;9099;47.958;11.366;2023-07-08T15:15:15;31.90;90.70
17948;DHT22;9099;47.958;11.366;2023-07-08T15:17:43;31.70;91.00
17948;DHT22;9099;47.958;11.366;2023-07-08T15:20:12;31.60;91.20
17948;DHT22;9099;47.958;11.366;2023-07-08T15:22:44;31.50;91.60
17948;DHT22;9099;47.958;11.366;2023-07-08T15:25:11;31.40;90.60
17948;DHT22;9099;47.958;11.366;2023-07-08T15:27:40;31.40;90.50
17948;DHT22;9099;47.958;11.366;2023-07-08T15:30:19;31.50;90.50
17948;DHT22;9099;47.958;11.366;2023-07-08T15:32:46;31.60;91.60
17948;DHT22;9099;47.958;11.366;2023-07-08T15:35:15;31.70;92.00
17948;DHT22;9099;47.958;11.366;2023-07-08T15:37:43;31.90;91.20
17948;DHT22;9099;47.958;11.366;2023-07-08T15:40:13;31.90;91.80
17948;DHT22;9099;47.958;11.366;2023-07-08T15:42:41;32.10;90.90
17948;DHT22;9099;47.958;11.366;2023-07-08T15:45:22;32.30;91.30
17948;DHT22;9099;47.958;11.366;2023-07-08T15:47:49;32.30;91.40
17948;DHT22;9099;47.958;11.366;2023-07-08T15:50:17;32.50;91.00